sensor_id;sensor_type;location;lat;lon;timestamp;temperature;humidity
2647;DHT22;1333;50.958;6.770;2024-02-26T00:00:16;8.30;99.90
2647;DHT22;1333;50.958;6.770;2024-02-26T00:02:41;8.30;99.90
2647;DHT22;1333;50.958;6.770;2024-02-26T00:05:08;8.30;99.90
2647;DHT22;1333;50.958;6.770;2024-02-26T00:07:34;8.30;99.90
2647;DHT22;1333;50.958;6.770;2024-02-26T00:09:59;8.30;99.90
2647;DHT22;1333;50.958;6.770;2024-02-26T00:12:25;8.30;99.90
2647;DHT22;1333;50.958;6.770;2024-02-26T00:14:50;8.30;99.90
2647;DHT22;1333;50.958;6.770;2024-02-26T00:17:18;8.40;99.90
2647;DHT22;1333;50.958;6.770;2024-02-26T00:19:43;8.40;99.90
2647;DHT22;1333;50.958;6.770;2024-02-26T00:22:09;8.30;99.90
2647;DHT22;1333;50.958;6.770;2024-02-26T00:24:34;8.40;99.90
2647;DHT22;1333;50.958;6.770;2024-02-26T00:27:00;8.40;99.90
2647;DHT22;1333;50.958;6.770;2024-02-26T00:29:25;8.40;99.90
2647;DHT22;1333;50.958;6.770;2024-02-26T00:31:51;8.40;99.90
2647;DHT22;1333;50.958;6.770;2024-02-26T00:34:17;8.40;99.90
2647;DHT22;1333;50.958;6.770;2024-02-26T00:36:42;8.40;99.90
2647;DHT22;1333;50.958;6.770;2024-02-26T00:39:08;8.40;99.90
2647;DHT22;1333;50.958;6.770;2024-02-26T00:41:38;8.40;99.90
2647;DHT22;1333;50.958;6.770;2024-02-26T00:44:04;8.40;99.90
2647;DHT22;1333;50.958;6.770;2024-02-26T00:46:29;8.30;99.90
2647;DHT22;1333;50.958;6.770;2024-02-26T00:48:55;8.30;99.90
2647;DHT22;1333;50.958;6.770;2024-02-26T00:51:20;8.20;99.90
2647;DHT22;1333;50.958;6.770;2024-02-26T00:53:46;8.10;99.90
2647;DHT22;1333;50.958;6.770;2024-02-26T00:56:11;8.20;99.90
2647;DHT22;1333;50.958;6.770;2024-02-26T00:58:37;8.10;99.90
2647;DHT22;1333;50.958;6.770;2024-02-26T01:01:02;8.10;99.90
2647;DHT22;1333;50.958;6.770;2024-02-26T01:03:28;8.10;99.90
2647;DHT22;1333;50.958;6.770;2024-02-26T01:05:54;8.20;99.90
2647;DHT22;1333;50.958;6.770;2024-02-26T01:08:19;8.20;99.90
2647;DHT22;1333;50.958;6.770;2024-02-26T01:10:45;8.20;99.90
2647;DHT22;1333;50.958;6.770;2024-02-26T01:13:11;8.20;99.90
2647;DHT22;1333;50.958;6.770;2024-02-26T01:15:36;8.20;99.90
2647;DHT22;1333;50.958;6.770;2024-02-26T01:18:02;8.20;99.90
2647;DHT22;1333;50.958;6.770;2024-02-26T01:20:28;8.20;99.90
2647;DHT22;1333;50.958;6.770;2024-02-26T01:22:53;8.20;99.90
2647;DHT22;1333;50.958;6.770;2024-02-26T01:25:19;8.20;99.90
2647;DHT22;1333;50.958;6.770;2024-02-26T01:27:44;8.10;99.90
2647;DHT22;1333;50.958;6.770;2024-02-26T01:30:10;8.10;99.90
2647;DHT22;1333;50.958;6.770;2024-02-26T01:32:36;8.10;99.90
2647;DHT22;1333;50.958;6.770;2024-02-26T01:35:02;8.20;99.90
2647;DHT22;1333;50.958;6.770;2024-02-26T01:37:32;8.10;99.90
2647;DHT22;1333;50.958;6.770;2024-02-26T01:39:58;8.20;99.90
2647;DHT22;1333;50.958;6.770;2024-02-26T01:42:23;8.20;99.90
2647;DHT22;1333;50.958;6.770;2024-02-26T01:44:49;8.10;99.90
2647;DHT22;1333;50.958;6.770;2024-02-26T01:47:15;8.20;99.90
2647;DHT22;1333;50.958;6.770;2024-02-26T01:49:40;8.20;99.90
2647;DHT22;1333;50.958;6.770;2024-02-26T01:52:07;8.20;99.90
2647;DHT22;1333;50.958;6.770;2024-02-26T01:54:37;8.20;99.90
2647;DHT22;1333;50.958;6.770;2024-02-26T01:57:05;8.20;99.90
2647;DHT22;1333;50.958;6.770;2024-02-26T01:59:32;8.20;99.90
2647;DHT22;1333;50.958;6.770;2024-02-26T02:01:59;8.20;99.90
2647;DHT22;1333;50.958;6.770;2024-02-26T02:04:27;8.10;99.90
2647;DHT22;1333;50.958;6.770;2024-02-26T02:06:53;8.10;99.90
2647;DHT22;1333;50.958;6.770;2024-02-26T02:09:19;8.00;99.90
2647;DHT22;1333;50.958;6.770;2024-02-26T02:11:44;8.00;99.90
2647;DHT22;1333;50.958;6.770;2024-02-26T02:14:10;8.00;99.90
2647;DHT22;1333;50.958;6.770;2024-02-26T02:16:36;8.00;99.90
2647;DHT22;1333;50.958;6.770;2024-02-26T02:19:01;7.90;99.90
2647;DHT22;1333;50.958;6.770;2024-02-26T02:21:27;7.90;99.90
2647;DHT22;1333;50.958;6.770;2024-02-26T02:23:52;7.90;99.90
2647;DHT22;1333;50.958;6.770;2024-02-26T02:26:18;7.80;99.90
2647;DHT22;1333;50.958;6.770;2024-02-26T02:28:45;7.80;99.90
2647;DHT22;1333;50.958;6.770;2024-02-26T02:31:11;7.80;99.90
2647;DHT22;1333;50.958;6.770;2024-02-26T02:33:37;7.90;99.90
2647;DHT22;1333;50.958;6.770;2024-02-26T02:36:03;7.90;99.90
2647;DHT22;1333;50.958;6.770;2024-02-26T02:38:29;7.90;99.90
2647;DHT22;1333;50.958;6.770;2024-02-26T02:40:55;7.90;99.90
2647;DHT22;1333;50.958;6.770;2024-02-26T02:43:21;7.90;99.90
2647;DHT22;1333;50.958;6.770;2024-02-26T02:45:46;7.90;99.90
2647;DHT22;1333;50.958;6.770;2024-02-26T02:48:12;7.80;99.90
2647;DHT22;1333;50.958;6.770;2024-02-26T02:50:38;7.90;99.90
2647;DHT22;1333;50.958;6.770;2024-02-26T02:53:03;7.90;99.90
2647;DHT22;1333;50.958;6.770;2024-02-26T02:55:29;7.90;99.90
2647;DHT22;1333;50.958;6.770;2024-02-26T02:57:54;7.80;99.90
2647;DHT22;1333;50.958;6.770;2024-02-26T03:00:20;7.90;99.90
2647;DHT22;1333;50.958;6.770;2024-02-26T03:02:48;7.80;99.90
2647;DHT22;1333;50.958;6.770;2024-02-26T03:05:14;7.80;99.90
2647;DHT22;1333;50.958;6.770;2024-02-26T03:07:39;7.70;99.90
2647;DHT22;1333;50.958;6.770;2024-02-26T03:10:05;7.70;99.90
2647;DHT22;1333;50.958;6.770;2024-02-26T03:12:31;7.80;99.90
2647;DHT22;1333;50.958;6.770;2024-02-26T03:14:57;7.80;99.90
2647;DHT22;1333;50.958;6.770;2024-02-26T03:17:22;7.80;99.90
2647;DHT22;1333;50.958;6.770;2024-02-26T03:19:49;7.80;99.90
2647;DHT22;1333;50.958;6.770;2024-02-26T03:22:18;7.80;99.90
2647;DHT22;1333;50.958;6.770;2024-02-26T03:24:44;7.80;99.90
2647;DHT22;1333;50.958;6.770;2024-02-26T03:27:09;7.70;99.90
2647;DHT22;1333;50.958;6.770;2024-02-26T03:29:36;7.70;99.90
2647;DHT22;1333;50.958;6.770;2024-02-26T03:32:02;7.70;99.90
2647;DHT22;1333;50.958;6.770;2024-02-26T03:34:28;7.70;99.90
2647;DHT22;1333;50.958;6.770;2024-02-26T03:36:53;7.70;99.90
2647;DHT22;1333;50.958;6.770;2024-02-26T03:39:19;7.70;99.90
2647;DHT22;1333;50.958;6.770;2024-02-26T03:41:44;7.70;99.90
2647;DHT22;1333;50.958;6.770;2024-02-26T03:44:10;7.70;99.90
2647;DHT22;1333;50.958;6.770;2024-02-26T03:46:35;7.70;99.90
2647;DHT22;1333;50.958;6.770;2024-02-26T03:49:01;7.70;99.90
2647;DHT22;1333;50.958;6.770;2024-02-26T03:51:27;7.60;99.90
2647;DHT22;1333;50.958;6.770;2024-02-26T03:53:57;7.70;99.90
2647;DHT22;1333;50.958;6.770;2024-02-26T03:56:23;7.70;99.90
2647;DHT22;1333;50.958;6.770;2024-02-26T03:58:48;7.70;99.90
2647;DHT22;1333;50.958;6.770;2024-02-26T04:01:14;7.80;99.90
2647;DHT22;1333;50.958;6.770;2024-02-26T04:03:39;7.80;99.90
2647;DHT22;1333;50.958;6.770;2024-02-26T04:06:08;7.70;99.90
2647;DHT22;1333;50.958;6.770;2024-02-26T04:08:33;7.70;99.90
2647;DHT22;1333;50.958;6.770;2024-02-26T04:10:59;7.70;99.90
2647;DHT22;1333;50.958;6.770;2024-02-26T04:13:25;7.70;99.90
2647;DHT22;1333;50.958;6.770;2024-02-26T04:15:50;7.70;99.90
2647;DHT22;1333;50.958;6.770;2024-02-26T04:18:16;7.80;99.90
2647;DHT22;1333;50.958;6.770;2024-02-26T04:20:41;7.80;99.90
2647;DHT22;1333;50.958;6.770;2024-02-26T04:23:09;7.70;99.90
2647;DHT22;1333;50.958;6.770;2024-02-26T04:25:35;7.60;99.90
2647;DHT22;1333;50.958;6.770;2024-02-26T04:28:00;7.60;99.90
2647;DHT22;1333;50.958;6.770;2024-02-26T04:30:26;7.60;99.90
2647;DHT22;1333;50.958;6.770;2024-02-26T04:32:52;7.60;99.90
2647;DHT22;1333;50.958;6.770;2024-02-26T04:35:17;7.50;99.90
2647;DHT22;1333;50.958;6.770;2024-02-26T04:37:43;7.60;99.90
2647;DHT22;1333;50.958;6.770;2024-02-26T04:40:08;7.60;99.90
2647;DHT22;1333;50.958;6.770;2024-02-26T04:42:34;7.60;99.90
2647;DHT22;1333;50.958;6.770;2024-02-26T04:45:00;7.60;99.90
2647;DHT22;1333;50.958;6.770;2024-02-26T04:47:25;7.70;99.90
2647;DHT22;1333;50.958;6.770;2024-02-26T04:49:51;7.60;99.90
2647;DHT22;1333;50.958;6.770;2024-02-26T04:52:18;7.60;99.90
2647;DHT22;1333;50.958;6.770;2024-02-26T04:54:44;7.60;99.90
2647;DHT22;1333;50.958;6.770;2024-02-26T04:57:09;7.60;99.90
2647;DHT22;1333;50.958;6.770;2024-02-26T04:59:35;7.60;99.90
2647;DHT22;1333;50.958;6.770;2024-02-26T05:02:00;7.60;99.90
2647;DHT22;1333;50.958;6.770;2024-02-26T05:04:26;7.60;99.90
2647;DHT22;1333;50.958;6.770;2024-02-26T05:06:51;7.60;99.90
2647;DHT22;1333;50.958;6.770;2024-02-26T05:09:17;7.60;99.90
2647;DHT22;1333;50.958;6.770;2024-02-26T05:11:43;7.60;99.90
2647;DHT22;1333;50.958;6.770;2024-02-26T05:14:09;7.50;99.90
2647;DHT22;1333;50.958;6.770;2024-02-26T05:16:35;7.50;99.90
2647;DHT22;1333;50.958;6.770;2024-02-26T05:19:01;7.60;99.90
2647;DHT22;1333;50.958;6.770;2024-02-26T05:21:26;7.50;99.90
2647;DHT22;1333;50.958;6.770;2024-02-26T05:23:52;7.50;99.90
2647;DHT22;1333;50.958;6.770;2024-02-26T05:26:21;7.60;99.90
2647;DHT22;1333;50.958;6.770;2024-02-26T05:28:47;7.50;99.90
2647;DHT22;1333;50.958;6.770;2024-02-26T05:31:13;7.50;99.90
2647;DHT22;1333;50.958;6.770;2024-02-26T05:33:39;7.50;99.90
2647;DHT22;1333;50.958;6.770;2024-02-26T05:36:05;7.50;99.90
2647;DHT22;1333;50.958;6.770;2024-02-26T05:38:30;7.50;99.90
2647;DHT22;1333;50.958;6.770;2024-02-26T05:41:00;7.50;99.90
2647;DHT22;1333;50.958;6.770;2024-02-26T05:43:26;7.50;99.90
2647;DHT22;1333;50.958;6.770;2024-02-26T05:45:52;7.50;99.90
2647;DHT22;1333;50.958;6.770;2024-02-26T05:48:17;7.40;99.90
2647;DHT22;1333;50.958;6.770;2024-02-26T05:50:45;7.40;99.90
2647;DHT22;1333;50.958;6.770;2024-02-26T05:53:10;7.40;99.90
2647;DHT22;1333;50.958;6.770;2024-02-26T05:55:36;7.40;99.90
2647;DHT22;1333;50.958;6.770;2024-02-26T05:58:02;7.50;99.90
2647;DHT22;1333;50.958;6.770;2024-02-26T06:00:28;7.50;99.90
2647;DHT22;1333;50.958;6.770;2024-02-26T06:02:53;7.50;99.90
2647;DHT22;1333;50.958;6.770;2024-02-26T06:05:19;7.40;99.90
2647;DHT22;1333;50.958;6.770;2024-02-26T06:07:44;7.40;99.90
2647;DHT22;1333;50.958;6.770;2024-02-26T06:10:10;7.30;99.90
2647;DHT22;1333;50.958;6.770;2024-02-26T06:12:36;7.40;99.90
2647;DHT22;1333;50.958;6.770;2024-02-26T06:15:02;7.40;99.90
2647;DHT22;1333;50.958;6.770;2024-02-26T06:17:27;7.40;99.90
2647;DHT22;1333;50.958;6.770;2024-02-26T06:19:53;7.30;99.90
2647;DHT22;1333;50.958;6.770;2024-02-26T06:22:19;7.30;99.90
2647;DHT22;1333;50.958;6.770;2024-02-26T06:24:44;7.30;99.90
2647;DHT22;1333;50.958;6.770;2024-02-26T06:27:10;7.20;99.90
2647;DHT22;1333;50.958;6.770;2024-02-26T06:29:35;7.30;99.90
2647;DHT22;1333;50.958;6.770;2024-02-26T06:32:01;7.30;99.90
2647;DHT22;1333;50.958;6.770;2024-02-26T06:34:26;7.30;99.90
2647;DHT22;1333;50.958;6.770;2024-02-26T06:36:52;7.30;99.90
2647;DHT22;1333;50.958;6.770;2024-02-26T06:39:17;7.30;99.90
2647;DHT22;1333;50.958;6.770;2024-02-26T06:41:44;7.20;99.90
2647;DHT22;1333;50.958;6.770;2024-02-26T06:44:12;7.20;99.90
2647;DHT22;1333;50.958;6.770;2024-02-26T06:46:38;7.30;99.90
2647;DHT22;1333;50.958;6.770;2024-02-26T06:49:03;7.30;99.90
2647;DHT22;1333;50.958;6.770;2024-02-26T06:51:29;7.30;99.90
2647;DHT22;1333;50.958;6.770;2024-02-26T06:53:54;7.20;99.90
2647;DHT22;1333;50.958;6.770;2024-02-26T06:56:20;7.20;99.90
2647;DHT22;1333;50.958;6.770;2024-02-26T06:58:45;7.20;99.90
2647;DHT22;1333;50.958;6.770;2024-02-26T07:01:12;7.20;99.90
2647;DHT22;1333;50.958;6.770;2024-02-26T07:03:40;7.20;99.90
2647;DHT22;1333;50.958;6.770;2024-02-26T07:06:05;7.30;99.90
2647;DHT22;1333;50.958;6.770;2024-02-26T07:08:32;7.30;99.90
2647;DHT22;1333;50.958;6.770;2024-02-26T07:10:57;7.30;99.90
2647;DHT22;1333;50.958;6.770;2024-02-26T07:13:23;7.40;99.90
2647;DHT22;1333;50.958;6.770;2024-02-26T07:15:49;7.40;99.90
2647;DHT22;1333;50.958;6.770;2024-02-26T07:18:14;7.40;99.90
2647;DHT22;1333;50.958;6.770;2024-02-26T07:20:40;7.40;99.90
2647;DHT22;1333;50.958;6.770;2024-02-26T07:23:05;7.40;99.90
2647;DHT22;1333;50.958;6.770;2024-02-26T07:25:32;7.30;99.90
2647;DHT22;1333;50.958;6.770;2024-02-26T07:27:57;7.30;99.90
2647;DHT22;1333;50.958;6.770;2024-02-26T07:30:23;7.30;99.90
2647;DHT22;1333;50.958;6.770;2024-02-26T07:32:50;7.40;99.90
2647;DHT22;1333;50.958;6.770;2024-02-26T07:35:15;7.40;99.90
2647;DHT22;1333;50.958;6.770;2024-02-26T07:37:41;7.30;99.90
2647;DHT22;1333;50.958;6.770;2024-02-26T07:40:08;7.40;99.90
2647;DHT22;1333;50.958;6.770;2024-02-26T07:42:33;7.40;99.90
2647;DHT22;1333;50.958;6.770;2024-02-26T07:44:59;7.40;99.90
2647;DHT22;1333;50.958;6.770;2024-02-26T07:47:24;7.40;99.90
2647;DHT22;1333;50.958;6.770;2024-02-26T07:49:50;7.40;99.90
2647;DHT22;1333;50.958;6.770;2024-02-26T07:52:16;7.50;99.90
2647;DHT22;1333;50.958;6.770;2024-02-26T07:54:41;7.50;99.90
2647;DHT22;1333;50.958;6.770;2024-02-26T07:57:07;7.50;99.90
2647;DHT22;1333;50.958;6.770;2024-02-26T07:59:32;7.60;99.90
2647;DHT22;1333;50.958;6.770;2024-02-26T08:01:58;7.60;99.90
2647;DHT22;1333;50.958;6.770;2024-02-26T08:04:24;7.60;99.90
2647;DHT22;1333;50.958;6.770;2024-02-26T08:06:50;7.60;99.90
2647;DHT22;1333;50.958;6.770;2024-02-26T08:09:16;7.60;99.90
2647;DHT22;1333;50.958;6.770;2024-02-26T08:11:41;7.70;99.90
2647;DHT22;1333;50.958;6.770;2024-02-26T08:14:07;7.60;99.90
2647;DHT22;1333;50.958;6.770;2024-02-26T08:16:32;7.70;99.90
2647;DHT22;1333;50.958;6.770;2024-02-26T08:18:58;7.70;99.90
2647;DHT22;1333;50.958;6.770;2024-02-26T08:21:23;7.70;99.90
2647;DHT22;1333;50.958;6.770;2024-02-26T08:23:49;7.70;99.90
2647;DHT22;1333;50.958;6.770;2024-02-26T08:26:14;7.80;99.90
2647;DHT22;1333;50.958;6.770;2024-02-26T08:28:40;7.80;99.90
2647;DHT22;1333;50.958;6.770;2024-02-26T08:31:06;7.80;99.90
2647;DHT22;1333;50.958;6.770;2024-02-26T08:33:32;7.80;99.90
2647;DHT22;1333;50.958;6.770;2024-02-26T08:35:59;7.80;99.90
2647;DHT22;1333;50.958;6.770;2024-02-26T08:38:24;7.90;99.90
2647;DHT22;1333;50.958;6.770;2024-02-26T08:40:50;7.80;99.90
2647;DHT22;1333;50.958;6.770;2024-02-26T08:43:15;7.80;99.90
2647;DHT22;1333;50.958;6.770;2024-02-26T08:45:41;7.80;99.90
2647;DHT22;1333;50.958;6.770;2024-02-26T08:48:07;7.80;99.90
2647;DHT22;1333;50.958;6.770;2024-02-26T08:50:33;7.80;99.90
2647;DHT22;1333;50.958;6.770;2024-02-26T08:52:58;7.80;99.90
2647;DHT22;1333;50.958;6.770;2024-02-26T08:55:26;7.80;99.90
2647;DHT22;1333;50.958;6.770;2024-02-26T08:57:52;7.80;99.90
2647;DHT22;1333;50.958;6.770;2024-02-26T09:00:17;7.80;99.90
2647;DHT22;1333;50.958;6.770;2024-02-26T09:02:46;7.80;99.90
2647;DHT22;1333;50.958;6.770;2024-02-26T09:05:12;7.80;99.90
2647;DHT22;1333;50.958;6.770;2024-02-26T09:07:37;7.80;99.90
2647;DHT22;1333;50.958;6.770;2024-02-26T09:10:03;7.80;99.90
2647;DHT22;1333;50.958;6.770;2024-02-26T09:12:29;7.80;99.90
2647;DHT22;1333;50.958;6.770;2024-02-26T09:14:55;7.80;99.90
2647;DHT22;1333;50.958;6.770;2024-02-26T09:17:22;7.80;99.90
2647;DHT22;1333;50.958;6.770;2024-02-26T09:19:48;7.80;99.90
2647;DHT22;1333;50.958;6.770;2024-02-26T09:22:14;7.80;99.90
2647;DHT22;1333;50.958;6.770;2024-02-26T09:24:39;7.90;99.90
2647;DHT22;1333;50.958;6.770;2024-02-26T09:27:05;7.90;99.90
2647;DHT22;1333;50.958;6.770;2024-02-26T09:29:30;8.00;99.90
2647;DHT22;1333;50.958;6.770;2024-02-26T09:31:56;8.10;99.90
2647;DHT22;1333;50.958;6.770;2024-02-26T09:34:21;8.10;99.90
2647;DHT22;1333;50.958;6.770;2024-02-26T09:36:47;8.00;99.90
2647;DHT22;1333;50.958;6.770;2024-02-26T09:39:12;8.00;99.90
2647;DHT22;1333;50.958;6.770;2024-02-26T09:41:40;8.00;99.90
2647;DHT22;1333;50.958;6.770;2024-02-26T09:44:06;8.00;99.90
2647;DHT22;1333;50.958;6.770;2024-02-26T09:46:31;8.00;99.90
2647;DHT22;1333;50.958;6.770;2024-02-26T09:48:57;8.00;99.90
2647;DHT22;1333;50.958;6.770;2024-02-26T09:51:23;8.00;99.90
2647;DHT22;1333;50.958;6.770;2024-02-26T09:53:53;8.00;99.90
2647;DHT22;1333;50.958;6.770;2024-02-26T09:56:19;8.10;99.90
2647;DHT22;1333;50.958;6.770;2024-02-26T09:58:45;8.10;99.90
2647;DHT22;1333;50.958;6.770;2024-02-26T10:01:17;8.10;99.90
2647;DHT22;1333;50.958;6.770;2024-02-26T10:03:44;8.20;99.90
2647;DHT22;1333;50.958;6.770;2024-02-26T10:06:11;8.20;99.90
2647;DHT22;1333;50.958;6.770;2024-02-26T10:08:36;8.20;99.90
2647;DHT22;1333;50.958;6.770;2024-02-26T10:11:04;8.30;99.90
2647;DHT22;1333;50.958;6.770;2024-02-26T10:13:30;8.30;99.90
2647;DHT22;1333;50.958;6.770;2024-02-26T10:15:55;8.30;99.90
2647;DHT22;1333;50.958;6.770;2024-02-26T10:18:23;8.40;99.90
2647;DHT22;1333;50.958;6.770;2024-02-26T10:21:02;8.50;99.90
2647;DHT22;1333;50.958;6.770;2024-02-26T10:23:27;8.50;99.90
2647;DHT22;1333;50.958;6.770;2024-02-26T10:25:56;8.60;99.90
2647;DHT22;1333;50.958;6.770;2024-02-26T10:28:23;8.70;99.90
2647;DHT22;1333;50.958;6.770;2024-02-26T10:30:48;8.80;99.90
2647;DHT22;1333;50.958;6.770;2024-02-26T10:33:16;8.90;99.90
2647;DHT22;1333;50.958;6.770;2024-02-26T10:35:48;9.10;99.90
2647;DHT22;1333;50.958;6.770;2024-02-26T10:38:13;9.30;99.90
2647;DHT22;1333;50.958;6.770;2024-02-26T10:40:42;9.50;99.90
2647;DHT22;1333;50.958;6.770;2024-02-26T10:43:07;9.70;99.90
2647;DHT22;1333;50.958;6.770;2024-02-26T10:45:33;9.90;99.90
2647;DHT22;1333;50.958;6.770;2024-02-26T10:48:00;10.00;99.90
2647;DHT22;1333;50.958;6.770;2024-02-26T10:50:26;10.10;99.90
2647;DHT22;1333;50.958;6.770;2024-02-26T10:52:51;10.20;99.90
2647;DHT22;1333;50.958;6.770;2024-02-26T10:55:17;10.30;99.90
2647;DHT22;1333;50.958;6.770;2024-02-26T10:57:46;10.30;99.90
2647;DHT22;1333;50.958;6.770;2024-02-26T11:00:16;10.40;99.90
2647;DHT22;1333;50.958;6.770;2024-02-26T11:02:42;10.50;99.90
2647;DHT22;1333;50.958;6.770;2024-02-26T11:05:11;10.50;99.90
2647;DHT22;1333;50.958;6.770;2024-02-26T11:07:37;10.50;99.90
2647;DHT22;1333;50.958;6.770;2024-02-26T11:10:04;10.50;99.90
2647;DHT22;1333;50.958;6.770;2024-02-26T11:12:32;10.50;99.90
2647;DHT22;1333;50.958;6.770;2024-02-26T11:15:00;10.40;99.90
2647;DHT22;1333;50.958;6.770;2024-02-26T11:17:28;10.30;99.90
2647;DHT22;1333;50.958;6.770;2024-02-26T11:19:58;10.20;99.90
2647;DHT22;1333;50.958;6.770;2024-02-26T11:22:24;10.20;99.90
2647;DHT22;1333;50.958;6.770;2024-02-26T11:24:57;10.10;99.90
2647;DHT22;1333;50.958;6.770;2024-02-26T11:27:37;10.00;99.90
2647;DHT22;1333;50.958;6.770;2024-02-26T11:30:05;10.10;99.90
2647;DHT22;1333;50.958;6.770;2024-02-26T11:32:34;10.10;99.90
2647;DHT22;1333;50.958;6.770;2024-02-26T11:35:00;10.10;99.90
2647;DHT22;1333;50.958;6.770;2024-02-26T11:37:26;10.00;99.90
2647;DHT22;1333;50.958;6.770;2024-02-26T11:39:52;10.10;99.90
2647;DHT22;1333;50.958;6.770;2024-02-26T11:42:23;10.20;99.90
2647;DHT22;1333;50.958;6.770;2024-02-26T11:44:50;10.20;99.90
2647;DHT22;1333;50.958;6.770;2024-02-26T11:47:21;10.20;99.90
2647;DHT22;1333;50.958;6.770;2024-02-26T11:49:47;10.10;99.90
2647;DHT22;1333;50.958;6.770;2024-02-26T11:52:14;10.10;99.90
2647;DHT22;1333;50.958;6.770;2024-02-26T11:57:27;10.00;99.90
2647;DHT22;1333;50.958;6.770;2024-02-26T11:59:55;10.10;99.90
2647;DHT22;1333;50.958;6.770;2024-02-26T12:05:18;10.00;99.90
2647;DHT22;1333;50.958;6.770;2024-02-26T12:07:52;9.90;99.90
2647;DHT22;1333;50.958;6.770;2024-02-26T12:12:47;9.80;99.90
2647;DHT22;1333;50.958;6.770;2024-02-26T12:15:15;9.70;99.90
2647;DHT22;1333;50.958;6.770;2024-02-26T12:17:41;9.70;99.90
2647;DHT22;1333;50.958;6.770;2024-02-26T12:20:10;9.60;99.90
2647;DHT22;1333;50.958;6.770;2024-02-26T12:22:38;9.50;99.90
2647;DHT22;1333;50.958;6.770;2024-02-26T12:25:05;9.50;99.90
2647;DHT22;1333;50.958;6.770;2024-02-26T12:27:31;9.50;99.90
2647;DHT22;1333;50.958;6.770;2024-02-26T12:29:56;9.50;99.90
2647;DHT22;1333;50.958;6.770;2024-02-26T12:32:23;9.60;99.90
2647;DHT22;1333;50.958;6.770;2024-02-26T12:34:49;9.70;99.90
2647;DHT22;1333;50.958;6.770;2024-02-26T12:37:15;9.80;99.90
2647;DHT22;1333;50.958;6.770;2024-02-26T12:39:41;9.80;99.90
2647;DHT22;1333;50.958;6.770;2024-02-26T12:42:07;9.80;99.90
2647;DHT22;1333;50.958;6.770;2024-02-26T12:44:32;9.80;99.90
2647;DHT22;1333;50.958;6.770;2024-02-26T12:47:02;9.90;99.90
2647;DHT22;1333;50.958;6.770;2024-02-26T12:49:31;10.00;99.90
2647;DHT22;1333;50.958;6.770;2024-02-26T12:51:56;10.00;99.90
2647;DHT22;1333;50.958;6.770;2024-02-26T12:54:28;10.00;99.90
2647;DHT22;1333;50.958;6.770;2024-02-26T12:56:54;10.00;99.90
2647;DHT22;1333;50.958;6.770;2024-02-26T12:59:20;10.10;99.90
2647;DHT22;1333;50.958;6.770;2024-02-26T13:01:45;10.10;99.90
2647;DHT22;1333;50.958;6.770;2024-02-26T13:04:11;10.10;99.90
2647;DHT22;1333;50.958;6.770;2024-02-26T13:06:37;10.10;99.90
2647;DHT22;1333;50.958;6.770;2024-02-26T13:09:03;10.10;99.90
2647;DHT22;1333;50.958;6.770;2024-02-26T13:11:29;10.00;99.90
2647;DHT22;1333;50.958;6.770;2024-02-26T13:13:56;10.00;99.90
2647;DHT22;1333;50.958;6.770;2024-02-26T13:16:24;9.90;99.90
2647;DHT22;1333;50.958;6.770;2024-02-26T13:18:50;9.90;99.90
2647;DHT22;1333;50.958;6.770;2024-02-26T13:21:18;9.80;99.90
2647;DHT22;1333;50.958;6.770;2024-02-26T13:23:48;9.70;99.90
2647;DHT22;1333;50.958;6.770;2024-02-26T13:26:14;9.80;99.90
2647;DHT22;1333;50.958;6.770;2024-02-26T13:28:40;9.80;99.90
2647;DHT22;1333;50.958;6.770;2024-02-26T13:31:06;9.70;99.90
2647;DHT22;1333;50.958;6.770;2024-02-26T13:33:33;9.80;99.90
2647;DHT22;1333;50.958;6.770;2024-02-26T13:35:59;9.90;99.90
2647;DHT22;1333;50.958;6.770;2024-02-26T13:38:26;9.80;99.90
2647;DHT22;1333;50.958;6.770;2024-02-26T13:40:52;9.70;99.90
2647;DHT22;1333;50.958;6.770;2024-02-26T13:43:18;9.70;99.90
2647;DHT22;1333;50.958;6.770;2024-02-26T13:45:44;9.70;99.90
2647;DHT22;1333;50.958;6.770;2024-02-26T13:48:10;9.70;99.90
2647;DHT22;1333;50.958;6.770;2024-02-26T13:50:37;9.70;99.90
2647;DHT22;1333;50.958;6.770;2024-02-26T13:53:02;9.70;99.90
2647;DHT22;1333;50.958;6.770;2024-02-26T13:55:30;9.70;99.90
2647;DHT22;1333;50.958;6.770;2024-02-26T13:57:57;9.70;99.90
2647;DHT22;1333;50.958;6.770;2024-02-26T14:00:23;9.70;99.90
2647;DHT22;1333;50.958;6.770;2024-02-26T14:02:50;9.60;99.90
2647;DHT22;1333;50.958;6.770;2024-02-26T14:05:15;9.70;99.90
2647;DHT22;1333;50.958;6.770;2024-02-26T14:07:41;9.70;99.90
2647;DHT22;1333;50.958;6.770;2024-02-26T14:10:08;9.90;99.90
2647;DHT22;1333;50.958;6.770;2024-02-26T14:12:37;9.90;99.90
2647;DHT22;1333;50.958;6.770;2024-02-26T14:15:03;9.90;99.90
2647;DHT22;1333;50.958;6.770;2024-02-26T14:17:30;9.90;99.90
2647;DHT22;1333;50.958;6.770;2024-02-26T14:19:56;9.80;99.90
2647;DHT22;1333;50.958;6.770;2024-02-26T14:22:21;9.70;99.90
2647;DHT22;1333;50.958;6.770;2024-02-26T14:24:47;9.80;99.90
2647;DHT22;1333;50.958;6.770;2024-02-26T14:27:13;9.80;99.90
2647;DHT22;1333;50.958;6.770;2024-02-26T14:29:43;9.80;99.90
2647;DHT22;1333;50.958;6.770;2024-02-26T14:32:09;9.80;99.90
2647;DHT22;1333;50.958;6.770;2024-02-26T14:34:35;9.90;99.90
2647;DHT22;1333;50.958;6.770;2024-02-26T14:37:01;9.90;99.90
2647;DHT22;1333;50.958;6.770;2024-02-26T14:39:27;10.00;99.90
2647;DHT22;1333;50.958;6.770;2024-02-26T14:41:52;10.00;99.90
2647;DHT22;1333;50.958;6.770;2024-02-26T14:44:18;10.00;99.90
2647;DHT22;1333;50.958;6.770;2024-02-26T14:46:43;10.00;99.90
2647;DHT22;1333;50.958;6.770;2024-02-26T14:49:09;10.00;99.90
2647;DHT22;1333;50.958;6.770;2024-02-26T14:51:36;10.10;99.90
2647;DHT22;1333;50.958;6.770;2024-02-26T14:54:01;10.00;99.90
2647;DHT22;1333;50.958;6.770;2024-02-26T14:56:27;10.00;99.90
2647;DHT22;1333;50.958;6.770;2024-02-26T14:58:53;10.10;99.90
2647;DHT22;1333;50.958;6.770;2024-02-26T15:01:18;10.30;99.90
2647;DHT22;1333;50.958;6.770;2024-02-26T15:03:44;10.40;99.90
2647;DHT22;1333;50.958;6.770;2024-02-26T15:06:10;10.40;99.90
2647;DHT22;1333;50.958;6.770;2024-02-26T15:08:35;10.30;99.90
2647;DHT22;1333;50.958;6.770;2024-02-26T15:11:01;10.40;99.90
2647;DHT22;1333;50.958;6.770;2024-02-26T15:13:27;10.40;99.90
2647;DHT22;1333;50.958;6.770;2024-02-26T15:15:52;10.40;99.90
2647;DHT22;1333;50.958;6.770;2024-02-26T15:18:18;10.40;99.90
2647;DHT22;1333;50.958;6.770;2024-02-26T15:20:44;10.40;99.90
2647;DHT22;1333;50.958;6.770;2024-02-26T15:23:11;10.40;99.90
2647;DHT22;1333;50.958;6.770;2024-02-26T15:25:36;10.40;99.90
2647;DHT22;1333;50.958;6.770;2024-02-26T15:28:02;10.30;99.90
2647;DHT22;1333;50.958;6.770;2024-02-26T15:30:27;10.40;99.90
2647;DHT22;1333;50.958;6.770;2024-02-26T15:32:57;10.30;99.90
2647;DHT22;1333;50.958;6.770;2024-02-26T15:35:23;10.30;99.90
2647;DHT22;1333;50.958;6.770;2024-02-26T15:37:48;10.20;99.90
2647;DHT22;1333;50.958;6.770;2024-02-26T15:40:14;10.00;99.90
2647;DHT22;1333;50.958;6.770;2024-02-26T15:42:40;10.00;99.90
2647;DHT22;1333;50.958;6.770;2024-02-26T15:45:06;10.00;99.90
2647;DHT22;1333;50.958;6.770;2024-02-26T15:47:31;9.90;99.90
2647;DHT22;1333;50.958;6.770;2024-02-26T15:49:57;9.90;99.90
2647;DHT22;1333;50.958;6.770;2024-02-26T15:52:23;9.80;99.90
2647;DHT22;1333;50.958;6.770;2024-02-26T15:54:48;9.80;99.90
2647;DHT22;1333;50.958;6.770;2024-02-26T15:57:14;9.80;99.90
2647;DHT22;1333;50.958;6.770;2024-02-26T15:59:41;9.80;99.90
2647;DHT22;1333;50.958;6.770;2024-02-26T16:02:07;9.80;99.90
2647;DHT22;1333;50.958;6.770;2024-02-26T16:04:32;9.80;99.90
2647;DHT22;1333;50.958;6.770;2024-02-26T16:07:04;9.80;99.90
2647;DHT22;1333;50.958;6.770;2024-02-26T16:09:35;9.80;99.90
2647;DHT22;1333;50.958;6.770;2024-02-26T16:12:09;9.80;99.90
2647;DHT22;1333;50.958;6.770;2024-02-26T16:14:44;9.70;99.90